sensor_id;sensor_type;location;lat;lon;timestamp;P1;durP1;ratioP1;P2;durP2;ratioP2
70337;SDS011;57757;53.198;19.646;2023-09-07T00:00:20;8.00;;;3.90;;
70337;SDS011;57757;53.198;19.646;2023-09-07T00:03:08;8.20;;;4.00;;
70337;SDS011;57757;53.198;19.646;2023-09-07T00:05:35;16.00;;;5.10;;
70337;SDS011;57757;53.198;19.646;2023-09-07T00:08:03;10.50;;;4.40;;
70337;SDS011;57757;53.198;19.646;2023-09-07T00:10:32;9.00;;;4.50;;
70337;SDS011;57757;53.198;19.646;2023-09-07T00:13:03;10.70;;;4.80;;
70337;SDS011;57757;53.198;19.646;2023-09-07T00:15:37;9.60;;;4.30;;
70337;SDS011;57757;53.198;19.646;2023-09-07T00:18:05;8.90;;;4.40;;
70337;SDS011;57757;53.198;19.646;2023-09-07T00:20:33;10.10;;;4.60;;
70337;SDS011;57757;53.198;19.646;2023-09-07T00:23:01;9.20;;;5.00;;
70337;SDS011;57757;53.198;19.646;2023-09-07T00:25:29;9.30;;;4.70;;
70337;SDS011;57757;53.198;19.646;2023-09-07T00:27:56;10.20;;;5.30;;
70337;SDS011;57757;53.198;19.646;2023-09-07T00:30:24;9.60;;;4.90;;
70337;SDS011;57757;53.198;19.646;2023-09-07T00:32:51;9.60;;;4.60;;
70337;SDS011;57757;53.198;19.646;2023-09-07T00:35:19;9.40;;;4.60;;
70337;SDS011;57757;53.198;19.646;2023-09-07T00:37:46;8.80;;;4.60;;
70337;SDS011;57757;53.198;19.646;2023-09-07T00:40:14;8.90;;;5.00;;
70337;SDS011;57757;53.198;19.646;2023-09-07T00:42:41;10.70;;;5.00;;
70337;SDS011;57757;53.198;19.646;2023-09-07T00:45:09;9.60;;;5.00;;
70337;SDS011;57757;53.198;19.646;2023-09-07T00:47:37;8.70;;;4.60;;
70337;SDS011;57757;53.198;19.646;2023-09-07T00:50:05;12.10;;;5.00;;
70337;SDS011;57757;53.198;19.646;2023-09-07T00:52:33;9.20;;;4.70;;
70337;SDS011;57757;53.198;19.646;2023-09-07T00:55:02;8.90;;;4.30;;
70337;SDS011;57757;53.198;19.646;2023-09-07T00:57:32;8.80;;;4.50;;
70337;SDS011;57757;53.198;19.646;2023-09-07T01:00:00;9.20;;;4.80;;
70337;SDS011;57757;53.198;19.646;2023-09-07T01:02:27;8.90;;;4.70;;
70337;SDS011;57757;53.198;19.646;2023-09-07T01:04:57;10.10;;;4.90;;
70337;SDS011;57757;53.198;19.646;2023-09-07T01:07:25;11.90;;;4.80;;
70337;SDS011;57757;53.198;19.646;2023-09-07T01:09:59;9.60;;;5.10;;
70337;SDS011;57757;53.198;19.646;2023-09-07T01:12:29;10.20;;;4.90;;
70337;SDS011;57757;53.198;19.646;2023-09-07T01:14:57;9.20;;;5.00;;
70337;SDS011;57757;53.198;19.646;2023-09-07T01:17:25;9.90;;;5.00;;
70337;SDS011;57757;53.198;19.646;2023-09-07T01:19:55;8.70;;;4.90;;
70337;SDS011;57757;53.198;19.646;2023-09-07T01:22:26;8.00;;;4.60;;
70337;SDS011;57757;53.198;19.646;2023-09-07T01:24:54;7.80;;;4.30;;
70337;SDS011;57757;53.198;19.646;2023-09-07T01:27:22;9.70;;;4.90;;
70337;SDS011;57757;53.198;19.646;2023-09-07T01:29:51;8.50;;;4.50;;
70337;SDS011;57757;53.198;19.646;2023-09-07T01:32:19;10.30;;;4.60;;
70337;SDS011;57757;53.198;19.646;2023-09-07T01:34:47;8.90;;;4.40;;
70337;SDS011;57757;53.198;19.646;2023-09-07T01:37:14;8.50;;;4.30;;
70337;SDS011;57757;53.198;19.646;2023-09-07T01:39:42;8.40;;;4.40;;
70337;SDS011;57757;53.198;19.646;2023-09-07T01:42:09;8.70;;;4.90;;
70337;SDS011;57757;53.198;19.646;2023-09-07T01:44:37;8.30;;;4.50;;
70337;SDS011;57757;53.198;19.646;2023-09-07T01:47:05;10.40;;;4.40;;
70337;SDS011;57757;53.198;19.646;2023-09-07T01:49:33;9.60;;;4.50;;
70337;SDS011;57757;53.198;19.646;2023-09-07T01:52:01;9.90;;;4.60;;
70337;SDS011;57757;53.198;19.646;2023-09-07T01:54:29;8.60;;;4.20;;
70337;SDS011;57757;53.198;19.646;2023-09-07T01:56:56;9.40;;;4.60;;
70337;SDS011;57757;53.198;19.646;2023-09-07T01:59:24;7.90;;;4.40;;
70337;SDS011;57757;53.198;19.646;2023-09-07T02:01:51;8.50;;;4.10;;
70337;SDS011;57757;53.198;19.646;2023-09-07T02:04:19;8.40;;;4.50;;
70337;SDS011;57757;53.198;19.646;2023-09-07T02:06:46;9.30;;;4.70;;
70337;SDS011;57757;53.198;19.646;2023-09-07T02:09:14;8.80;;;4.70;;
70337;SDS011;57757;53.198;19.646;2023-09-07T02:11:41;8.80;;;4.70;;
70337;SDS011;57757;53.198;19.646;2023-09-07T02:14:09;8.90;;;4.20;;
70337;SDS011;57757;53.198;19.646;2023-09-07T02:16:38;8.90;;;4.60;;
70337;SDS011;57757;53.198;19.646;2023-09-07T02:19:06;9.40;;;4.50;;
70337;SDS011;57757;53.198;19.646;2023-09-07T02:21:34;9.90;;;4.70;;
70337;SDS011;57757;53.198;19.646;2023-09-07T02:24:01;10.20;;;5.40;;
70337;SDS011;57757;53.198;19.646;2023-09-07T02:26:30;9.70;;;5.00;;
70337;SDS011;57757;53.198;19.646;2023-09-07T02:28:57;10.50;;;5.10;;
70337;SDS011;57757;53.198;19.646;2023-09-07T02:31:25;9.80;;;5.00;;
70337;SDS011;57757;53.198;19.646;2023-09-07T02:33:53;9.50;;;5.10;;
70337;SDS011;57757;53.198;19.646;2023-09-07T02:36:20;10.00;;;5.40;;
70337;SDS011;57757;53.198;19.646;2023-09-07T02:38:48;9.40;;;5.30;;
70337;SDS011;57757;53.198;19.646;2023-09-07T02:41:15;10.40;;;5.30;;
70337;SDS011;57757;53.198;19.646;2023-09-07T02:43:43;20.70;;;6.50;;
70337;SDS011;57757;53.198;19.646;2023-09-07T02:46:11;12.10;;;5.40;;
70337;SDS011;57757;53.198;19.646;2023-09-07T02:48:38;12.00;;;5.60;;
70337;SDS011;57757;53.198;19.646;2023-09-07T02:51:06;9.20;;;5.30;;
70337;SDS011;57757;53.198;19.646;2023-09-07T02:53:33;12.70;;;5.60;;
70337;SDS011;57757;53.198;19.646;2023-09-07T02:56:01;10.60;;;5.70;;
70337;SDS011;57757;53.198;19.646;2023-09-07T02:58:31;9.90;;;5.90;;
70337;SDS011;57757;53.198;19.646;2023-09-07T03:01:05;10.00;;;5.70;;
70337;SDS011;57757;53.198;19.646;2023-09-07T03:03:35;10.50;;;6.00;;
70337;SDS011;57757;53.198;19.646;2023-09-07T03:06:10;10.00;;;6.20;;
70337;SDS011;57757;53.198;19.646;2023-09-07T03:08:40;10.00;;;5.80;;
70337;SDS011;57757;53.198;19.646;2023-09-07T03:11:08;10.00;;;5.60;;
70337;SDS011;57757;53.198;19.646;2023-09-07T03:13:37;11.70;;;6.50;;
70337;SDS011;57757;53.198;19.646;2023-09-07T03:16:05;15.40;;;7.20;;
70337;SDS011;57757;53.198;19.646;2023-09-07T03:18:33;10.60;;;6.00;;
70337;SDS011;57757;53.198;19.646;2023-09-07T03:21:02;12.30;;;5.90;;
70337;SDS011;57757;53.198;19.646;2023-09-07T03:23:31;11.10;;;5.90;;
70337;SDS011;57757;53.198;19.646;2023-09-07T03:26:00;11.40;;;5.80;;
70337;SDS011;57757;53.198;19.646;2023-09-07T03:28:28;10.90;;;5.90;;
70337;SDS011;57757;53.198;19.646;2023-09-07T03:30:56;10.40;;;5.90;;
70337;SDS011;57757;53.198;19.646;2023-09-07T03:33:24;10.80;;;6.20;;
70337;SDS011;57757;53.198;19.646;2023-09-07T03:35:51;12.90;;;6.10;;
70337;SDS011;57757;53.198;19.646;2023-09-07T03:38:19;10.00;;;5.50;;
70337;SDS011;57757;53.198;19.646;2023-09-07T03:40:46;11.10;;;5.70;;
70337;SDS011;57757;53.198;19.646;2023-09-07T03:43:14;11.80;;;5.90;;
70337;SDS011;57757;53.198;19.646;2023-09-07T03:45:41;14.10;;;5.60;;
70337;SDS011;57757;53.198;19.646;2023-09-07T03:48:09;12.40;;;5.80;;
70337;SDS011;57757;53.198;19.646;2023-09-07T03:50:37;12.80;;;6.20;;
70337;SDS011;57757;53.198;19.646;2023-09-07T03:53:04;9.60;;;5.80;;
70337;SDS011;57757;53.198;19.646;2023-09-07T03:55:39;11.40;;;5.70;;
70337;SDS011;57757;53.198;19.646;2023-09-07T03:58:11;11.20;;;6.10;;
70337;SDS011;57757;53.198;19.646;2023-09-07T04:00:39;11.80;;;7.00;;
70337;SDS011;57757;53.198;19.646;2023-09-07T04:03:08;12.90;;;7.00;;
70337;SDS011;57757;53.198;19.646;2023-09-07T04:05:37;13.20;;;6.50;;
70337;SDS011;57757;53.198;19.646;2023-09-07T04:08:05;10.40;;;5.40;;
70337;SDS011;57757;53.198;19.646;2023-09-07T04:10:37;9.50;;;5.20;;
70337;SDS011;57757;53.198;19.646;2023-09-07T04:13:05;17.60;;;6.90;;
70337;SDS011;57757;53.198;19.646;2023-09-07T04:15:42;11.30;;;5.30;;
70337;SDS011;57757;53.198;19.646;2023-09-07T04:18:14;10.20;;;5.40;;
70337;SDS011;57757;53.198;19.646;2023-09-07T04:20:44;9.70;;;5.60;;
70337;SDS011;57757;53.198;19.646;2023-09-07T04:23:11;12.90;;;5.80;;
70337;SDS011;57757;53.198;19.646;2023-09-07T04:25:39;9.70;;;5.50;;
70337;SDS011;57757;53.198;19.646;2023-09-07T04:28:07;11.20;;;5.90;;
70337;SDS011;57757;53.198;19.646;2023-09-07T04:30:38;12.10;;;5.70;;
70337;SDS011;57757;53.198;19.646;2023-09-07T04:33:07;10.40;;;5.60;;
70337;SDS011;57757;53.198;19.646;2023-09-07T04:35:34;9.60;;;5.40;;
70337;SDS011;57757;53.198;19.646;2023-09-07T04:38:02;10.00;;;5.50;;
70337;SDS011;57757;53.198;19.646;2023-09-07T04:40:30;12.20;;;5.60;;
70337;SDS011;57757;53.198;19.646;2023-09-07T04:42:57;11.80;;;6.80;;
70337;SDS011;57757;53.198;19.646;2023-09-07T04:45:25;15.40;;;7.50;;
70337;SDS011;57757;53.198;19.646;2023-09-07T04:47:52;11.70;;;6.10;;
70337;SDS011;57757;53.198;19.646;2023-09-07T04:50:20;10.80;;;5.90;;
70337;SDS011;57757;53.198;19.646;2023-09-07T04:52:47;13.20;;;6.20;;
70337;SDS011;57757;53.198;19.646;2023-09-07T04:55:15;11.40;;;6.10;;
70337;SDS011;57757;53.198;19.646;2023-09-07T04:57:42;11.20;;;6.60;;
70337;SDS011;57757;53.198;19.646;2023-09-07T05:00:10;12.40;;;7.00;;
70337;SDS011;57757;53.198;19.646;2023-09-07T05:02:38;10.30;;;5.80;;
70337;SDS011;57757;53.198;19.646;2023-09-07T05:05:09;10.70;;;6.10;;
70337;SDS011;57757;53.198;19.646;2023-09-07T05:07:37;14.80;;;6.40;;
70337;SDS011;57757;53.198;19.646;2023-09-07T05:10:04;11.90;;;6.20;;
70337;SDS011;57757;53.198;19.646;2023-09-07T05:12:34;12.00;;;6.00;;
70337;SDS011;57757;53.198;19.646;2023-09-07T05:15:02;11.00;;;5.50;;
70337;SDS011;57757;53.198;19.646;2023-09-07T05:17:33;14.20;;;5.90;;
70337;SDS011;57757;53.198;19.646;2023-09-07T05:20:01;11.90;;;6.00;;
70337;SDS011;57757;53.198;19.646;2023-09-07T05:22:31;11.60;;;6.10;;
70337;SDS011;57757;53.198;19.646;2023-09-07T05:25:04;12.40;;;5.50;;
70337;SDS011;57757;53.198;19.646;2023-09-07T05:27:33;10.10;;;5.60;;
70337;SDS011;57757;53.198;19.646;2023-09-07T05:30:03;11.30;;;5.70;;
70337;SDS011;57757;53.198;19.646;2023-09-07T05:32:32;10.10;;;5.40;;
70337;SDS011;57757;53.198;19.646;2023-09-07T05:34:59;12.20;;;6.30;;
70337;SDS011;57757;53.198;19.646;2023-09-07T05:37:27;10.20;;;6.00;;
70337;SDS011;57757;53.198;19.646;2023-09-07T05:39:55;11.20;;;5.70;;
70337;SDS011;57757;53.198;19.646;2023-09-07T05:42:22;11.40;;;5.70;;
70337;SDS011;57757;53.198;19.646;2023-09-07T05:44:50;10.00;;;6.00;;
70337;SDS011;57757;53.198;19.646;2023-09-07T05:47:22;10.90;;;5.60;;
70337;SDS011;57757;53.198;19.646;2023-09-07T05:49:49;10.10;;;6.00;;
70337;SDS011;57757;53.198;19.646;2023-09-07T05:52:19;13.70;;;6.40;;
70337;SDS011;57757;53.198;19.646;2023-09-07T05:54:47;12.00;;;5.60;;
70337;SDS011;57757;53.198;19.646;2023-09-07T05:57:15;12.70;;;6.00;;
70337;SDS011;57757;53.198;19.646;2023-09-07T05:59:42;10.70;;;6.00;;
70337;SDS011;57757;53.198;19.646;2023-09-07T06:02:10;12.90;;;5.80;;
70337;SDS011;57757;53.198;19.646;2023-09-07T06:04:40;11.10;;;5.80;;
70337;SDS011;57757;53.198;19.646;2023-09-07T06:07:08;11.90;;;6.20;;
70337;SDS011;57757;53.198;19.646;2023-09-07T06:09:35;11.50;;;5.80;;
70337;SDS011;57757;53.198;19.646;2023-09-07T06:12:04;18.70;;;6.70;;
70337;SDS011;57757;53.198;19.646;2023-09-07T06:14:31;10.10;;;5.50;;
70337;SDS011;57757;53.198;19.646;2023-09-07T06:16:59;10.10;;;5.10;;
70337;SDS011;57757;53.198;19.646;2023-09-07T06:19:27;10.60;;;5.40;;
70337;SDS011;57757;53.198;19.646;2023-09-07T06:21:55;11.50;;;5.50;;
70337;SDS011;57757;53.198;19.646;2023-09-07T06:24:22;10.50;;;5.20;;
70337;SDS011;57757;53.198;19.646;2023-09-07T06:26:50;10.70;;;5.20;;
70337;SDS011;57757;53.198;19.646;2023-09-07T06:29:17;13.20;;;5.50;;
70337;SDS011;57757;53.198;19.646;2023-09-07T06:31:46;9.80;;;4.90;;
70337;SDS011;57757;53.198;19.646;2023-09-07T06:34:13;11.30;;;5.10;;
70337;SDS011;57757;53.198;19.646;2023-09-07T06:36:41;10.20;;;4.80;;
70337;SDS011;57757;53.198;19.646;2023-09-07T06:39:15;11.90;;;5.40;;
70337;SDS011;57757;53.198;19.646;2023-09-07T06:41:45;11.70;;;4.80;;
70337;SDS011;57757;53.198;19.646;2023-09-07T06:44:14;9.30;;;5.20;;
70337;SDS011;57757;53.198;19.646;2023-09-07T06:46:42;9.90;;;4.80;;
70337;SDS011;57757;53.198;19.646;2023-09-07T06:49:10;11.20;;;5.10;;
70337;SDS011;57757;53.198;19.646;2023-09-07T06:51:37;11.50;;;5.40;;
70337;SDS011;57757;53.198;19.646;2023-09-07T06:54:05;9.60;;;5.00;;
70337;SDS011;57757;53.198;19.646;2023-09-07T06:56:33;13.60;;;5.20;;
70337;SDS011;57757;53.198;19.646;2023-09-07T06:59:01;11.50;;;5.00;;
70337;SDS011;57757;53.198;19.646;2023-09-07T07:01:29;9.40;;;4.40;;
70337;SDS011;57757;53.198;19.646;2023-09-07T07:03:57;11.10;;;5.60;;
70337;SDS011;57757;53.198;19.646;2023-09-07T07:06:25;9.20;;;4.70;;
70337;SDS011;57757;53.198;19.646;2023-09-07T07:08:52;10.40;;;4.30;;
70337;SDS011;57757;53.198;19.646;2023-09-07T07:11:20;9.20;;;4.80;;
70337;SDS011;57757;53.198;19.646;2023-09-07T07:13:47;11.70;;;5.20;;
70337;SDS011;57757;53.198;19.646;2023-09-07T07:16:16;14.30;;;5.20;;
70337;SDS011;57757;53.198;19.646;2023-09-07T07:18:44;8.80;;;4.80;;
70337;SDS011;57757;53.198;19.646;2023-09-07T07:21:12;8.60;;;4.70;;
70337;SDS011;57757;53.198;19.646;2023-09-07T07:23:39;10.70;;;4.50;;
70337;SDS011;57757;53.198;19.646;2023-09-07T07:26:06;9.80;;;4.80;;
70337;SDS011;57757;53.198;19.646;2023-09-07T07:28:36;10.90;;;4.50;;
70337;SDS011;57757;53.198;19.646;2023-09-07T07:31:07;13.60;;;4.30;;
70337;SDS011;57757;53.198;19.646;2023-09-07T07:33:36;10.90;;;4.00;;
70337;SDS011;57757;53.198;19.646;2023-09-07T07:36:05;12.90;;;4.50;;
70337;SDS011;57757;53.198;19.646;2023-09-07T07:38:33;9.30;;;4.30;;
70337;SDS011;57757;53.198;19.646;2023-09-07T07:41:02;9.10;;;4.20;;
70337;SDS011;57757;53.198;19.646;2023-09-07T07:43:29;8.80;;;4.60;;
70337;SDS011;57757;53.198;19.646;2023-09-07T07:45:58;8.80;;;4.80;;
70337;SDS011;57757;53.198;19.646;2023-09-07T07:48:26;12.20;;;4.70;;
70337;SDS011;57757;53.198;19.646;2023-09-07T07:50:56;9.00;;;4.50;;
70337;SDS011;57757;53.198;19.646;2023-09-07T07:53:23;11.50;;;5.10;;
70337;SDS011;57757;53.198;19.646;2023-09-07T07:55:51;9.80;;;4.70;;
70337;SDS011;57757;53.198;19.646;2023-09-07T07:58:19;8.40;;;4.10;;
70337;SDS011;57757;53.198;19.646;2023-09-07T08:00:47;9.70;;;4.80;;
70337;SDS011;57757;53.198;19.646;2023-09-07T08:03:16;7.00;;;4.20;;
70337;SDS011;57757;53.198;19.646;2023-09-07T08:05:44;8.20;;;3.70;;
70337;SDS011;57757;53.198;19.646;2023-09-07T08:08:12;8.70;;;4.40;;
70337;SDS011;57757;53.198;19.646;2023-09-07T08:10:39;11.70;;;4.60;;
70337;SDS011;57757;53.198;19.646;2023-09-07T08:13:09;9.80;;;4.30;;
70337;SDS011;57757;53.198;19.646;2023-09-07T08:15:36;10.80;;;4.00;;
70337;SDS011;57757;53.198;19.646;2023-09-07T08:18:04;9.70;;;4.10;;
70337;SDS011;57757;53.198;19.646;2023-09-07T08:20:32;8.50;;;4.00;;
70337;SDS011;57757;53.198;19.646;2023-09-07T08:23:00;9.70;;;4.00;;
70337;SDS011;57757;53.198;19.646;2023-09-07T08:25:30;8.10;;;3.90;;
70337;SDS011;57757;53.198;19.646;2023-09-07T08:27:58;9.70;;;4.10;;
70337;SDS011;57757;53.198;19.646;2023-09-07T08:30:27;10.50;;;4.30;;
70337;SDS011;57757;53.198;19.646;2023-09-07T08:32:54;11.50;;;4.30;;
70337;SDS011;57757;53.198;19.646;2023-09-07T08:35:23;14.20;;;4.20;;
70337;SDS011;57757;53.198;19.646;2023-09-07T08:37:55;7.80;;;3.70;;
70337;SDS011;57757;53.198;19.646;2023-09-07T08:40:25;15.20;;;5.50;;
70337;SDS011;57757;53.198;19.646;2023-09-07T08:42:54;8.40;;;4.10;;
70337;SDS011;57757;53.198;19.646;2023-09-07T08:45:22;11.80;;;4.50;;
70337;SDS011;57757;53.198;19.646;2023-09-07T08:47:53;8.80;;;4.00;;
70337;SDS011;57757;53.198;19.646;2023-09-07T08:50:24;11.70;;;4.60;;
70337;SDS011;57757;53.198;19.646;2023-09-07T08:52:52;7.60;;;4.20;;
70337;SDS011;57757;53.198;19.646;2023-09-07T08:55:21;10.50;;;4.40;;
70337;SDS011;57757;53.198;19.646;2023-09-07T08:57:48;9.70;;;4.40;;
70337;SDS011;57757;53.198;19.646;2023-09-07T09:00:16;11.00;;;4.70;;
70337;SDS011;57757;53.198;19.646;2023-09-07T09:02:46;11.40;;;4.10;;
70337;SDS011;57757;53.198;19.646;2023-09-07T09:05:23;18.00;;;7.90;;
70337;SDS011;57757;53.198;19.646;2023-09-07T09:10:38;10.70;;;4.70;;
70337;SDS011;57757;53.198;19.646;2023-09-07T09:13:07;10.50;;;4.60;;
70337;SDS011;57757;53.198;19.646;2023-09-07T09:15:35;9.00;;;3.60;;
70337;SDS011;57757;53.198;19.646;2023-09-07T09:18:12;8.10;;;3.90;;
70337;SDS011;57757;53.198;19.646;2023-09-07T09:20:41;8.50;;;3.70;;
70337;SDS011;57757;53.198;19.646;2023-09-07T09:23:08;11.70;;;4.70;;
70337;SDS011;57757;53.198;19.646;2023-09-07T09:25:40;8.00;;;3.50;;
70337;SDS011;57757;53.198;19.646;2023-09-07T09:28:09;10.30;;;4.50;;
70337;SDS011;57757;53.198;19.646;2023-09-07T09:30:37;7.70;;;3.80;;
70337;SDS011;57757;53.198;19.646;2023-09-07T09:33:05;7.20;;;3.50;;
70337;SDS011;57757;53.198;19.646;2023-09-07T09:35:34;7.20;;;3.20;;
70337;SDS011;57757;53.198;19.646;2023-09-07T09:38:02;10.70;;;3.80;;
70337;SDS011;57757;53.198;19.646;2023-09-07T09:40:32;9.50;;;3.60;;
70337;SDS011;57757;53.198;19.646;2023-09-07T09:43:05;8.40;;;4.40;;
70337;SDS011;57757;53.198;19.646;2023-09-07T09:45:33;9.60;;;3.80;;
70337;SDS011;57757;53.198;19.646;2023-09-07T09:48:02;6.50;;;3.30;;
70337;SDS011;57757;53.198;19.646;2023-09-07T09:50:33;10.40;;;3.70;;
70337;SDS011;57757;53.198;19.646;2023-09-07T09:53:07;8.70;;;3.90;;
70337;SDS011;57757;53.198;19.646;2023-09-07T09:55:35;8.00;;;3.60;;
70337;SDS011;57757;53.198;19.646;2023-09-07T09:58:03;9.10;;;4.10;;
70337;SDS011;57757;53.198;19.646;2023-09-07T10:00:32;8.90;;;3.60;;
70337;SDS011;57757;53.198;19.646;2023-09-07T10:03:10;12.50;;;4.80;;
70337;SDS011;57757;53.198;19.646;2023-09-07T10:05:44;9.90;;;3.70;;
70337;SDS011;57757;53.198;19.646;2023-09-07T10:08:14;6.90;;;3.40;;
70337;SDS011;57757;53.198;19.646;2023-09-07T10:10:46;7.90;;;3.40;;
70337;SDS011;57757;53.198;19.646;2023-09-07T10:13:16;9.60;;;4.40;;
70337;SDS011;57757;53.198;19.646;2023-09-07T10:16:03;14.00;;;4.40;;
70337;SDS011;57757;53.198;19.646;2023-09-07T10:18:36;9.80;;;4.70;;
70337;SDS011;57757;53.198;19.646;2023-09-07T10:21:05;11.40;;;3.90;;
70337;SDS011;57757;53.198;19.646;2023-09-07T10:26:04;7.60;;;4.00;;
70337;SDS011;57757;53.198;19.646;2023-09-07T10:28:37;10.10;;;3.90;;
70337;SDS011;57757;53.198;19.646;2023-09-07T10:34:09;9.30;;;3.80;;
70337;SDS011;57757;53.198;19.646;2023-09-07T10:36:40;7.50;;;3.80;;
70337;SDS011;57757;53.198;19.646;2023-09-07T10:39:09;8.20;;;3.60;;
70337;SDS011;57757;53.198;19.646;2023-09-07T10:41:41;15.20;;;4.40;;
70337;SDS011;57757;53.198;19.646;2023-09-07T10:44:12;11.80;;;4.50;;
70337;SDS011;57757;53.198;19.646;2023-09-07T10:46:41;12.30;;;4.40;;
70337;SDS011;57757;53.198;19.646;2023-09-07T10:49:11;7.30;;;3.50;;
70337;SDS011;57757;53.198;19.646;2023-09-07T10:51:40;9.30;;;4.50;;
70337;SDS011;57757;53.198;19.646;2023-09-07T10:56:50;7.00;;;3.70;;
70337;SDS011;57757;53.198;19.646;2023-09-07T10:59:18;11.70;;;4.50;;
70337;SDS011;57757;53.198;19.646;2023-09-07T11:01:45;11.20;;;3.90;;
70337;SDS011;57757;53.198;19.646;2023-09-07T11:04:15;10.40;;;4.30;;
70337;SDS011;57757;53.198;19.646;2023-09-07T11:06:45;8.30;;;4.40;;
70337;SDS011;57757;53.198;19.646;2023-09-07T11:09:12;9.60;;;4.10;;
70337;SDS011;57757;53.198;19.646;2023-09-07T11:11:40;8.00;;;3.90;;
70337;SDS011;57757;53.198;19.646;2023-09-07T11:14:08;6.70;;;3.80;;
70337;SDS011;57757;53.198;19.646;2023-09-07T11:16:35;9.00;;;4.20;;
70337;SDS011;57757;53.198;19.646;2023-09-07T11:19:03;8.60;;;4.20;;
70337;SDS011;57757;53.198;19.646;2023-09-07T11:21:33;6.50;;;3.70;;
70337;SDS011;57757;53.198;19.646;2023-09-07T11:24:03;7.10;;;4.00;;
70337;SDS011;57757;53.198;19.646;2023-09-07T11:26:41;7.00;;;4.10;;
70337;SDS011;57757;53.198;19.646;2023-09-07T11:29:14;12.80;;;4.50;;
70337;SDS011;57757;53.198;19.646;2023-09-07T11:31:43;10.60;;;3.90;;
70337;SDS011;57757;53.198;19.646;2023-09-07T11:34:12;8.40;;;4.10;;
70337;SDS011;57757;53.198;19.646;2023-09-07T11:36:41;11.90;;;4.20;;
70337;SDS011;57757;53.198;19.646;2023-09-07T11:39:10;10.80;;;4.10;;
70337;SDS011;57757;53.198;19.646;2023-09-07T11:41:42;10.60;;;4.50;;
70337;SDS011;57757;53.198;19.646;2023-09-07T11:44:11;6.90;;;3.60;;
70337;SDS011;57757;53.198;19.646;2023-09-07T11:46:39;7.40;;;3.70;;
70337;SDS011;57757;53.198;19.646;2023-09-07T11:49:07;9.10;;;4.20;;
70337;SDS011;57757;53.198;19.646;2023-09-07T11:51:37;8.30;;;3.80;;
70337;SDS011;57757;53.198;19.646;2023-09-07T11:54:05;8.80;;;4.30;;
70337;SDS011;57757;53.198;19.646;2023-09-07T11:56:32;9.10;;;3.90;;
70337;SDS011;57757;53.198;19.646;2023-09-07T11:59:02;9.90;;;4.60;;
70337;SDS011;57757;53.198;19.646;2023-09-07T12:01:30;8.10;;;4.50;;
70337;SDS011;57757;53.198;19.646;2023-09-07T12:03:58;8.50;;;4.40;;
70337;SDS011;57757;53.198;19.646;2023-09-07T12:06:25;9.40;;;3.90;;
70337;SDS011;57757;53.198;19.646;2023-09-07T12:09:00;10.10;;;4.40;;
70337;SDS011;57757;53.198;19.646;2023-09-07T12:11:29;9.10;;;4.20;;
70337;SDS011;57757;53.198;19.646;2023-09-07T12:14:00;9.10;;;4.60;;
70337;SDS011;57757;53.198;19.646;2023-09-07T12:16:28;8.40;;;4.30;;
70337;SDS011;57757;53.198;19.646;2023-09-07T12:18:56;10.10;;;4.50;;
70337;SDS011;57757;53.198;19.646;2023-09-07T12:21:24;11.00;;;4.10;;
70337;SDS011;57757;53.198;19.646;2023-09-07T12:23:51;13.40;;;5.10;;
70337;SDS011;57757;53.198;19.646;2023-09-07T12:26:19;11.80;;;4.70;;
70337;SDS011;57757;53.198;19.646;2023-09-07T12:28:48;11.40;;;4.40;;
70337;SDS011;57757;53.198;19.646;2023-09-07T12:31:16;10.00;;;4.90;;
70337;SDS011;57757;53.198;19.646;2023-09-07T12:33:44;10.40;;;5.10;;
70337;SDS011;57757;53.198;19.646;2023-09-07T12:36:11;10.90;;;5.10;;
70337;SDS011;57757;53.198;19.646;2023-09-07T12:38:39;8.10;;;4.80;;
70337;SDS011;57757;53.198;19.646;2023-09-07T12:41:07;7.70;;;4.00;;
70337;SDS011;57757;53.198;19.646;2023-09-07T12:43:36;6.80;;;4.60;;
70337;SDS011;57757;53.198;19.646;2023-09-07T12:46:03;10.00;;;4.40;;
70337;SDS011;57757;53.198;19.646;2023-09-07T12:48:31;7.60;;;4.40;;
70337;SDS011;57757;53.198;19.646;2023-09-07T12:50:58;7.00;;;4.00;;
70337;SDS011;57757;53.198;19.646;2023-09-07T12:53:26;6.90;;;4.50;;
70337;SDS011;57757;53.198;19.646;2023-09-07T12:55:54;7.20;;;4.50;;
70337;SDS011;57757;53.198;19.646;2023-09-07T12:58:21;8.60;;;4.60;;
70337;SDS011;57757;53.198;19.646;2023-09-07T13:00:49;7.00;;;3.80;;
70337;SDS011;57757;53.198;19.646;2023-09-07T13:03:19;6.80;;;4.40;;
70337;SDS011;57757;53.198;19.646;2023-09-07T13:05:47;7.00;;;4.00;;
70337;SDS011;57757;53.198;19.646;2023-09-07T13:08:15;8.20;;;4.60;;
70337;SDS011;57757;53.198;19.646;2023-09-07T13:10:43;7.40;;;4.20;;
70337;SDS011;57757;53.198;19.646;2023-09-07T13:13:10;8.80;;;4.10;;
70337;SDS011;57757;53.198;19.646;2023-09-07T13:15:38;8.00;;;3.80;;
70337;SDS011;57757;53.198;19.646;2023-09-07T13:18:05;7.30;;;3.80;;
70337;SDS011;57757;53.198;19.646;2023-09-07T13:20:33;6.20;;;3.10;;
70337;SDS011;57757;53.198;19.646;2023-09-07T13:23:00;8.50;;;3.90;;
70337;SDS011;57757;53.198;19.646;2023-09-07T13:25:28;6.50;;;3.70;;
70337;SDS011;57757;53.198;19.646;2023-09-07T13:27:56;6.70;;;3.70;;
70337;SDS011;57757;53.198;19.646;2023-09-07T13:30:25;8.50;;;3.70;;
70337;SDS011;57757;53.198;19.646;2023-09-07T13:32:53;8.60;;;3.80;;
70337;SDS011;57757;53.198;19.646;2023-09-07T13:35:21;7.80;;;4.00;;
70337;SDS011;57757;53.198;19.646;2023-09-07T13:37:48;6.90;;;3.90;;
70337;SDS011;57757;53.198;19.646;2023-09-07T13:40:16;6.50;;;3.70;;
70337;SDS011;57757;53.198;19.646;2023-09-07T13:42:49;8.20;;;3.90;;
70337;SDS011;57757;53.198;19.646;2023-09-07T13:45:17;9.40;;;4.00;;
70337;SDS011;57757;53.198;19.646;2023-09-07T13:47:45;8.00;;;4.30;;
70337;SDS011;57757;53.198;19.646;2023-09-07T13:50:12;9.80;;;4.00;;
70337;SDS011;57757;53.198;19.646;2023-09-07T13:52:40;7.90;;;4.50;;
70337;SDS011;57757;53.198;19.646;2023-09-07T13:55:07;9.40;;;4.70;;
70337;SDS011;57757;53.198;19.646;2023-09-07T13:57:35;7.00;;;4.70;;
70337;SDS011;57757;53.198;19.646;2023-09-07T14:00:03;7.30;;;5.10;;
70337;SDS011;57757;53.198;19.646;2023-09-07T14:02:33;7.90;;;5.10;;
70337;SDS011;57757;53.198;19.646;2023-09-07T14:05:00;7.20;;;5.00;;
70337;SDS011;57757;53.198;19.646;2023-09-07T14:07:28;6.80;;;4.60;;
70337;SDS011;57757;53.198;19.646;2023-09-07T14:09:55;6.50;;;4.70;;
70337;SDS011;57757;53.198;19.646;2023-09-07T14:12:23;7.60;;;4.60;;
70337;SDS011;57757;53.198;19.646;2023-09-07T14:14:51;7.50;;;4.40;;
70337;SDS011;57757;53.198;19.646;2023-09-07T14:17:18;7.80;;;4.80;;
70337;SDS011;57757;53.198;19.646;2023-09-07T14:19:46;7.20;;;4.60;;
70337;SDS011;57757;53.198;19.646;2023-09-07T14:22:13;7.20;;;6.00;;
70337;SDS011;57757;53.198;19.646;2023-09-07T14:24:41;6.90;;;5.40;;
70337;SDS011;57757;53.198;19.646;2023-09-07T14:27:08;20.70;;;6.80;;
70337;SDS011;57757;53.198;19.646;2023-09-07T14:29:36;7.50;;;4.50;;
70337;SDS011;57757;53.198;19.646;2023-09-07T14:32:04;8.20;;;5.80;;
70337;SDS011;57757;53.198;19.646;2023-09-07T14:34:32;7.10;;;5.40;;
70337;SDS011;57757;53.198;19.646;2023-09-07T14:37:00;8.10;;;5.20;;
70337;SDS011;57757;53.198;19.646;2023-09-07T14:39:29;7.00;;;5.40;;
70337;SDS011;57757;53.198;19.646;2023-09-07T14:41:57;8.30;;;6.10;;
70337;SDS011;57757;53.198;19.646;2023-09-07T14:44:25;8.70;;;5.30;;
70337;SDS011;57757;53.198;19.646;2023-09-07T14:46:53;9.00;;;6.00;;